Flight Track Log - Related Links

Times and Time Zones

All times are in EST time to prevent confusion due to time zone crossing. See the FIN666 flight status page for this flight to view local times or setup timezone preferences in your user account.

Time Position Orientation Groundspeed Altitude Reporting Facility
EST Latitude Longitude Course Direction KTS MPH feet Rate Location/Type
Sat 07:33:00 AM 55.8093 13.0510 49° Northeast  Level Estimated
Sat 07:34:00 AM 55.8729 13.1836 49° Northeast  Level Estimated
Sat 07:35:00 AM 55.9363 13.3166 50° Northeast  Level Estimated
Sat 07:36:00 AM 55.9995 13.4500 50° Northeast  Level Estimated
Sat 07:37:00 AM 56.0685 13.5964 50° Northeast  Level Estimated
Sat 07:38:00 AM 56.1373 13.7433 50° Northeast  Level Estimated
Sat 07:39:00 AM 56.2059 13.8907 50° Northeast  Level Estimated
Sat 07:40:00 AM 56.2744 14.0387 50° Northeast  Level Estimated
Sat 07:41:00 AM 56.3427 14.1871 50° Northeast  Level Estimated
Sat 07:42:00 AM 56.4108 14.3362 50° Northeast  Level Estimated
Sat 07:43:00 AM 56.4815 14.4920 51° Northeast  Level Estimated
Sat 07:44:00 AM 56.5521 14.6483 51° Northeast  Level Estimated
Sat 07:45:00 AM 56.6224 14.8053 51° Northeast  Level Estimated
Sat 07:46:00 AM 56.6926 14.9628 51° Northeast  Level Estimated
Sat 07:47:00 AM 56.7625 15.1209 51° Northeast  Level Estimated
Sat 07:48:00 AM 56.8323 15.2797 51° Northeast  Level Estimated
Sat 07:49:00 AM 56.9018 15.4390 51° Northeast  Level Estimated
Sat 07:50:00 AM 56.9712 15.5989 51° Northeast  Level Estimated
Sat 07:51:00 AM 57.0403 15.7594 52° Northeast  Level Estimated
Sat 07:52:00 AM 57.1093 15.9205 52° Northeast  Level Estimated
Sat 07:53:00 AM 57.1780 16.0822 52° Northeast  Level Estimated
Sat 07:54:00 AM 57.2465 16.2445 52° Northeast  Level Estimated
Sat 07:55:00 AM 57.3148 16.4074 52° Northeast  Level Estimated
Sat 07:56:00 AM 57.3829 16.5709 52° Northeast  Level Estimated
Sat 07:57:00 AM 57.4499 16.7327 52° Northeast  Level Estimated
Sat 07:58:00 AM 57.5166 16.8952 53° Northeast  Level Estimated
Sat 07:59:00 AM 57.5832 17.0583 53° Northeast  Level Estimated
Sat 08:00:00 AM 57.6495 17.2219 53° Northeast  Level Estimated
Sat 08:01:00 AM 57.7156 17.3862 53° Northeast  Level Estimated
Sat 08:02:00 AM 57.7815 17.5510 53° Northeast  Level Estimated
Sat 08:03:00 AM 57.8472 17.7165 53° Northeast  Level Estimated
Sat 08:04:00 AM 57.9127 17.8825 53° Northeast  Level Estimated
Sat 08:05:00 AM 57.9780 18.0492 54° Northeast  Level Estimated
Sat 08:06:00 AM 58.0430 18.2164 54° Northeast  Level Estimated
Sat 08:07:00 AM 58.1078 18.3843 54° Northeast  Level Estimated
Sat 08:08:00 AM 58.1724 18.5528 54° Northeast  Level Estimated
Sat 08:09:00 AM 58.2368 18.7219 54° Northeast  Level Estimated
Sat 08:10:00 AM 58.3009 18.8916 54° Northeast  Level Estimated
Sat 08:11:00 AM 58.3649 19.0619 54° Northeast  Level Estimated
Sat 08:12:00 AM 58.4286 19.2328 55° Northeast  Level Estimated
Sat 08:13:00 AM 58.4921 19.4044 55° Northeast  Level Estimated
Sat 08:14:00 AM 58.5553 19.5766 55° Northeast  Level Estimated
Sat 08:15:00 AM 58.6183 19.7494 55° Northeast  Level Estimated
Sat 08:16:00 AM 58.6811 19.9228 55° Northeast  Level Estimated
Sat 08:17:00 AM 58.7436 20.0968 55° Northeast  Level Estimated
Sat 08:18:00 AM 58.8059 20.2715 55° Northeast  Level Estimated
Sat 08:19:00 AM 58.8680 20.4468 56° Northeast  Level Estimated
Sat 08:20:00 AM 58.9298 20.6227 56° Northeast  Level Estimated
Sat 08:21:00 AM 58.9914 20.7993 56° Northeast  Level Estimated
Sat 08:22:00 AM 59.0528 20.9765 56° Northeast  Level Estimated
Sat 08:23:00 AM 59.1139 21.1543 56° Northeast  Level Estimated
Sat 08:24:00 AM 59.1748 21.3328 56° Northeast  Level Estimated
Sat 08:25:00 AM 59.2354 21.5119 56° Northeast  Level Estimated
Sat 08:26:00 AM 59.2941 21.6868 57° Northeast  Level Estimated
Sat 08:27:00 AM 59.3527 21.8623 57° Northeast  Level Estimated
Sat 08:28:00 AM 59.4110 22.0385 57° Northeast  Level Estimated
Sat 08:29:00 AM 59.4690 22.2152 57° Northeast  Level Estimated
Sat 08:30:00 AM 59.5268 22.3926 57° Northeast  Level Estimated
Sat 08:31:00 AM 59.5844 22.5705 57° Northeast  Level Estimated
Sat 08:32:00 AM 59.6418 22.7491 58° Northeast  Level Estimated
Sat 08:33:00 AM 59.6988 22.9283 58° Northeast  Level Estimated
Sat 08:34:00 AM 59.7557 23.1081 58° Northeast  Level Estimated
Sat 08:35:00 AM 59.8123 23.2885 58° Northeast  Level Estimated
Sat 08:36:00 AM 59.8686 23.4695 58° Northeast  Level Estimated
Sat 08:37:00 AM 59.9247 23.6511 58° Northeast  Level Estimated
Sat 08:38:00 AM 59.9806 23.8334 58° Northeast  Level Estimated
Sat 08:39:00 AM 60.0362 24.0162 59° Northeast  Level Estimated
Sat 08:40:00 AM 60.0915 24.1997 59° Northeast  Level Estimated
Sat 08:41:00 AM 60.1466 24.3838 59° Northeast  Level Estimated
Sat 08:42:00 AM 60.2015 24.5685 59° Northeast  Level Estimated
Sat 08:43:00 AM 60.2561 24.7538 59° Northeast  Level Estimated
Sat 08:44:00 AM 60.3104 24.9398 59° Northeast  Level Estimated
Sat 08:45:00 AM 60.3172 24.9633 60° Northeast  Level Estimated
Sat 08:46:00 AM 60.3172 24.9633 37° Northeast  Level Estimated
Sat 08:47:00 AM 60.3172 24.9633 37° Northeast  Level Estimated
Sat 08:48:00 AM 60.3172 24.9633 37° Northeast  Level Estimated
Sat 08:49:00 AM 60.3172 24.9633 37° Northeast  Level Estimated
Sat 08:50:00 AM 60.3172 24.9633 37° Northeast  Level Estimated
Sat 08:51:00 AM 60.3172 24.9633 37° Northeast  Level Estimated
Sat 08:52:00 AM 60.3172 24.9633 37° Northeast  Level Estimated

Login

Don't have an account? Register now (free) for customized features, flight alerts, and more!